sensor_id;sensor_type;location;lat;lon;timestamp;temperature;humidity
14771;DHT22;7477;45.222;5.688;2022-12-20T00:03:09;15.60;99.90
14771;DHT22;7477;45.222;5.688;2022-12-20T00:06:28;15.70;99.90
14771;DHT22;7477;45.222;5.688;2022-12-20T00:09:48;15.90;99.90
14771;DHT22;7477;45.222;5.688;2022-12-20T00:13:08;16.00;99.90
14771;DHT22;7477;45.222;5.688;2022-12-20T00:16:28;15.90;99.90
14771;DHT22;7477;45.222;5.688;2022-12-20T00:19:47;15.90;99.90
14771;DHT22;7477;45.222;5.688;2022-12-20T00:23:07;15.70;99.90
14771;DHT22;7477;45.222;5.688;2022-12-20T00:26:29;15.70;99.90
14771;DHT22;7477;45.222;5.688;2022-12-20T00:29:48;15.90;99.90
14771;DHT22;7477;45.222;5.688;2022-12-20T00:33:08;15.70;99.90
14771;DHT22;7477;45.222;5.688;2022-12-20T00:36:29;15.30;99.90
14771;DHT22;7477;45.222;5.688;2022-12-20T00:39:49;15.50;99.90
14771;DHT22;7477;45.222;5.688;2022-12-20T00:43:08;15.40;99.90
14771;DHT22;7477;45.222;5.688;2022-12-20T00:46:27;15.30;99.90
14771;DHT22;7477;45.222;5.688;2022-12-20T00:49:46;15.20;99.90
14771;DHT22;7477;45.222;5.688;2022-12-20T00:53:06;15.30;99.90
14771;DHT22;7477;45.222;5.688;2022-12-20T00:56:28;15.00;99.90
14771;DHT22;7477;45.222;5.688;2022-12-20T00:59:47;14.90;99.90
14771;DHT22;7477;45.222;5.688;2022-12-20T01:03:06;15.40;99.90
14771;DHT22;7477;45.222;5.688;2022-12-20T01:06:26;14.80;99.90
14771;DHT22;7477;45.222;5.688;2022-12-20T01:09:46;15.10;99.90
14771;DHT22;7477;45.222;5.688;2022-12-20T01:13:05;15.00;99.90
14771;DHT22;7477;45.222;5.688;2022-12-20T01:16:40;15.00;99.90
14771;DHT22;7477;45.222;5.688;2022-12-20T01:20:00;15.50;99.90
14771;DHT22;7477;45.222;5.688;2022-12-20T01:23:19;15.10;99.90
14771;DHT22;7477;45.222;5.688;2022-12-20T01:26:38;15.10;99.90
14771;DHT22;7477;45.222;5.688;2022-12-20T01:29:57;15.30;99.90
14771;DHT22;7477;45.222;5.688;2022-12-20T01:33:16;15.00;99.90
14771;DHT22;7477;45.222;5.688;2022-12-20T01:36:36;15.50;99.90
14771;DHT22;7477;45.222;5.688;2022-12-20T01:39:58;15.10;99.90
14771;DHT22;7477;45.222;5.688;2022-12-20T01:43:18;15.20;99.90
14771;DHT22;7477;45.222;5.688;2022-12-20T01:46:38;15.10;99.90
14771;DHT22;7477;45.222;5.688;2022-12-20T01:49:59;15.30;99.90
14771;DHT22;7477;45.222;5.688;2022-12-20T01:53:22;15.40;99.90
14771;DHT22;7477;45.222;5.688;2022-12-20T01:56:45;15.00;99.90
14771;DHT22;7477;45.222;5.688;2022-12-20T02:00:07;15.20;99.90
14771;DHT22;7477;45.222;5.688;2022-12-20T02:03:29;15.30;99.90
14771;DHT22;7477;45.222;5.688;2022-12-20T02:06:50;15.10;99.90
14771;DHT22;7477;45.222;5.688;2022-12-20T02:10:10;15.20;99.90
14771;DHT22;7477;45.222;5.688;2022-12-20T02:20:57;15.60;99.90
14771;DHT22;7477;45.222;5.688;2022-12-20T02:27:53;14.70;99.90
14771;DHT22;7477;45.222;5.688;2022-12-20T02:31:22;14.30;99.90
14771;DHT22;7477;45.222;5.688;2022-12-20T02:34:43;14.70;99.90
14771;DHT22;7477;45.222;5.688;2022-12-20T02:38:23;15.20;99.90
14771;DHT22;7477;45.222;5.688;2022-12-20T02:42:05;15.10;99.90
14771;DHT22;7477;45.222;5.688;2022-12-20T02:45:29;14.90;99.90
14771;DHT22;7477;45.222;5.688;2022-12-20T02:48:53;14.60;99.90
14771;DHT22;7477;45.222;5.688;2022-12-20T02:52:16;14.70;99.90
14771;DHT22;7477;45.222;5.688;2022-12-20T02:56:26;14.50;99.90
14771;DHT22;7477;45.222;5.688;2022-12-20T02:59:32;14.80;99.90
14771;DHT22;7477;45.222;5.688;2022-12-20T03:02:53;14.70;99.90
14771;DHT22;7477;45.222;5.688;2022-12-20T03:06:32;15.10;99.90
14771;DHT22;7477;45.222;5.688;2022-12-20T03:09:52;14.80;99.90
14771;DHT22;7477;45.222;5.688;2022-12-20T03:13:11;15.30;99.90
14771;DHT22;7477;45.222;5.688;2022-12-20T03:16:31;14.40;99.90
14771;DHT22;7477;45.222;5.688;2022-12-20T03:19:50;14.70;99.90
14771;DHT22;7477;45.222;5.688;2022-12-20T03:23:09;15.50;99.90
14771;DHT22;7477;45.222;5.688;2022-12-20T03:26:28;15.50;99.90
14771;DHT22;7477;45.222;5.688;2022-12-20T03:29:47;15.30;99.90
14771;DHT22;7477;45.222;5.688;2022-12-20T03:33:06;15.10;99.90
14771;DHT22;7477;45.222;5.688;2022-12-20T03:36:25;14.90;99.90
14771;DHT22;7477;45.222;5.688;2022-12-20T03:39:45;14.80;99.90
14771;DHT22;7477;45.222;5.688;2022-12-20T03:43:04;15.40;99.90
14771;DHT22;7477;45.222;5.688;2022-12-20T03:46:24;15.50;99.90
14771;DHT22;7477;45.222;5.688;2022-12-20T03:49:44;15.80;99.90
14771;DHT22;7477;45.222;5.688;2022-12-20T03:53:03;15.50;99.90
14771;DHT22;7477;45.222;5.688;2022-12-20T03:56:22;15.40;99.90
14771;DHT22;7477;45.222;5.688;2022-12-20T03:59:42;15.40;99.90
14771;DHT22;7477;45.222;5.688;2022-12-20T04:03:02;15.70;99.90
14771;DHT22;7477;45.222;5.688;2022-12-20T04:06:22;16.10;99.90
14771;DHT22;7477;45.222;5.688;2022-12-20T04:09:42;15.40;99.90
14771;DHT22;7477;45.222;5.688;2022-12-20T04:13:01;15.70;99.90
14771;DHT22;7477;45.222;5.688;2022-12-20T04:16:23;15.80;99.90
14771;DHT22;7477;45.222;5.688;2022-12-20T04:19:43;16.20;99.90
14771;DHT22;7477;45.222;5.688;2022-12-20T04:23:02;16.00;99.90
14771;DHT22;7477;45.222;5.688;2022-12-20T04:26:22;15.60;99.90
14771;DHT22;7477;45.222;5.688;2022-12-20T04:29:41;16.10;99.90
14771;DHT22;7477;45.222;5.688;2022-12-20T04:33:00;16.00;99.90
14771;DHT22;7477;45.222;5.688;2022-12-20T04:36:21;15.70;99.90
14771;DHT22;7477;45.222;5.688;2022-12-20T04:39:40;16.10;99.90
14771;DHT22;7477;45.222;5.688;2022-12-20T04:42:59;16.20;99.90
14771;DHT22;7477;45.222;5.688;2022-12-20T04:46:19;15.90;99.90
14771;DHT22;7477;45.222;5.688;2022-12-20T04:49:38;15.90;99.90
14771;DHT22;7477;45.222;5.688;2022-12-20T04:52:57;16.10;99.90
14771;DHT22;7477;45.222;5.688;2022-12-20T04:56:36;16.00;99.90
14771;DHT22;7477;45.222;5.688;2022-12-20T04:59:57;16.00;99.90
14771;DHT22;7477;45.222;5.688;2022-12-20T05:03:19;16.10;99.90
14771;DHT22;7477;45.222;5.688;2022-12-20T05:06:38;16.30;99.90
14771;DHT22;7477;45.222;5.688;2022-12-20T05:09:57;16.00;99.90
14771;DHT22;7477;45.222;5.688;2022-12-20T05:13:17;16.10;99.90
14771;DHT22;7477;45.222;5.688;2022-12-20T05:16:36;16.00;99.90
14771;DHT22;7477;45.222;5.688;2022-12-20T05:19:55;16.20;99.90
14771;DHT22;7477;45.222;5.688;2022-12-20T05:23:14;16.20;99.90
14771;DHT22;7477;45.222;5.688;2022-12-20T05:26:52;16.40;99.90
14771;DHT22;7477;45.222;5.688;2022-12-20T05:30:12;16.20;99.90
14771;DHT22;7477;45.222;5.688;2022-12-20T05:33:32;16.40;99.90
14771;DHT22;7477;45.222;5.688;2022-12-20T05:36:51;16.20;99.90
14771;DHT22;7477;45.222;5.688;2022-12-20T05:40:11;16.20;99.90
14771;DHT22;7477;45.222;5.688;2022-12-20T05:43:30;16.20;99.90
14771;DHT22;7477;45.222;5.688;2022-12-20T05:46:49;16.30;99.90
14771;DHT22;7477;45.222;5.688;2022-12-20T05:50:09;16.10;99.90
14771;DHT22;7477;45.222;5.688;2022-12-20T05:53:29;16.20;99.90
14771;DHT22;7477;45.222;5.688;2022-12-20T05:56:48;16.30;99.90
14771;DHT22;7477;45.222;5.688;2022-12-20T06:00:08;16.00;99.90
14771;DHT22;7477;45.222;5.688;2022-12-20T06:03:28;15.70;99.90
14771;DHT22;7477;45.222;5.688;2022-12-20T06:06:47;15.90;99.90
14771;DHT22;7477;45.222;5.688;2022-12-20T06:10:07;15.80;99.90
14771;DHT22;7477;45.222;5.688;2022-12-20T06:13:26;15.50;99.90
14771;DHT22;7477;45.222;5.688;2022-12-20T06:16:46;14.90;99.90
14771;DHT22;7477;45.222;5.688;2022-12-20T06:20:06;15.00;99.90
14771;DHT22;7477;45.222;5.688;2022-12-20T06:23:25;15.50;99.90
14771;DHT22;7477;45.222;5.688;2022-12-20T06:26:44;14.70;99.90
14771;DHT22;7477;45.222;5.688;2022-12-20T06:30:04;15.50;99.90
14771;DHT22;7477;45.222;5.688;2022-12-20T06:33:24;15.10;99.90
14771;DHT22;7477;45.222;5.688;2022-12-20T06:36:43;14.30;99.90
14771;DHT22;7477;45.222;5.688;2022-12-20T06:40:03;14.10;99.90
14771;DHT22;7477;45.222;5.688;2022-12-20T06:43:23;14.70;99.90
14771;DHT22;7477;45.222;5.688;2022-12-20T06:46:42;14.40;99.90
14771;DHT22;7477;45.222;5.688;2022-12-20T06:50:03;14.20;99.90
14771;DHT22;7477;45.222;5.688;2022-12-20T06:53:22;14.10;99.90
14771;DHT22;7477;45.222;5.688;2022-12-20T06:56:41;14.60;99.90
14771;DHT22;7477;45.222;5.688;2022-12-20T07:00:00;14.30;99.90
14771;DHT22;7477;45.222;5.688;2022-12-20T07:03:20;14.80;99.90
14771;DHT22;7477;45.222;5.688;2022-12-20T07:06:40;14.40;99.90
14771;DHT22;7477;45.222;5.688;2022-12-20T07:09:59;13.90;99.90
14771;DHT22;7477;45.222;5.688;2022-12-20T07:13:18;13.90;99.90
14771;DHT22;7477;45.222;5.688;2022-12-20T07:16:38;14.40;99.90
14771;DHT22;7477;45.222;5.688;2022-12-20T07:20:00;14.00;99.90
14771;DHT22;7477;45.222;5.688;2022-12-20T07:23:19;13.70;99.90
14771;DHT22;7477;45.222;5.688;2022-12-20T07:26:38;14.90;99.90
14771;DHT22;7477;45.222;5.688;2022-12-20T07:29:58;14.60;99.90
14771;DHT22;7477;45.222;5.688;2022-12-20T07:33:17;14.90;99.90
14771;DHT22;7477;45.222;5.688;2022-12-20T07:36:36;14.80;99.90
14771;DHT22;7477;45.222;5.688;2022-12-20T07:39:55;15.20;99.90
14771;DHT22;7477;45.222;5.688;2022-12-20T07:43:14;14.30;99.90
14771;DHT22;7477;45.222;5.688;2022-12-20T07:46:34;13.90;99.90
14771;DHT22;7477;45.222;5.688;2022-12-20T07:49:53;15.20;99.90
14771;DHT22;7477;45.222;5.688;2022-12-20T07:53:13;14.40;99.90
14771;DHT22;7477;45.222;5.688;2022-12-20T07:56:34;14.80;99.90
14771;DHT22;7477;45.222;5.688;2022-12-20T07:59:56;14.70;99.90
14771;DHT22;7477;45.222;5.688;2022-12-20T08:03:23;15.30;99.90
14771;DHT22;7477;45.222;5.688;2022-12-20T08:06:45;15.30;99.90
14771;DHT22;7477;45.222;5.688;2022-12-20T08:10:06;15.80;99.90
14771;DHT22;7477;45.222;5.688;2022-12-20T08:13:26;15.90;99.90
14771;DHT22;7477;45.222;5.688;2022-12-20T08:16:46;16.10;99.90
14771;DHT22;7477;45.222;5.688;2022-12-20T08:20:06;16.20;99.90
14771;DHT22;7477;45.222;5.688;2022-12-20T08:23:26;15.50;99.90
14771;DHT22;7477;45.222;5.688;2022-12-20T08:26:45;15.50;99.90
14771;DHT22;7477;45.222;5.688;2022-12-20T08:30:05;15.00;99.90
14771;DHT22;7477;45.222;5.688;2022-12-20T08:33:26;14.30;99.90
14771;DHT22;7477;45.222;5.688;2022-12-20T08:36:45;15.20;99.90
14771;DHT22;7477;45.222;5.688;2022-12-20T08:40:05;15.30;99.90
14771;DHT22;7477;45.222;5.688;2022-12-20T08:43:26;15.70;99.90
14771;DHT22;7477;45.222;5.688;2022-12-20T08:46:45;15.20;99.90
14771;DHT22;7477;45.222;5.688;2022-12-20T08:50:05;15.40;99.90
14771;DHT22;7477;45.222;5.688;2022-12-20T08:53:24;14.90;99.90
14771;DHT22;7477;45.222;5.688;2022-12-20T08:56:44;14.00;99.90
14771;DHT22;7477;45.222;5.688;2022-12-20T09:00:03;13.60;99.90
14771;DHT22;7477;45.222;5.688;2022-12-20T09:03:23;13.60;99.90
14771;DHT22;7477;45.222;5.688;2022-12-20T09:06:43;13.40;99.90
14771;DHT22;7477;45.222;5.688;2022-12-20T09:10:02;13.60;99.90
14771;DHT22;7477;45.222;5.688;2022-12-20T09:13:22;13.80;99.90
14771;DHT22;7477;45.222;5.688;2022-12-20T09:16:41;15.10;99.90
14771;DHT22;7477;45.222;5.688;2022-12-20T09:20:01;16.10;99.90
14771;DHT22;7477;45.222;5.688;2022-12-20T09:23:20;15.90;99.90
14771;DHT22;7477;45.222;5.688;2022-12-20T09:26:39;15.70;99.90
14771;DHT22;7477;45.222;5.688;2022-12-20T09:29:58;16.00;99.90
14771;DHT22;7477;45.222;5.688;2022-12-20T09:33:18;16.10;99.90
14771;DHT22;7477;45.222;5.688;2022-12-20T09:36:37;16.10;99.90
14771;DHT22;7477;45.222;5.688;2022-12-20T09:39:56;16.20;99.90
14771;DHT22;7477;45.222;5.688;2022-12-20T09:43:17;16.10;99.90
14771;DHT22;7477;45.222;5.688;2022-12-20T09:46:38;15.90;99.90
14771;DHT22;7477;45.222;5.688;2022-12-20T09:49:58;16.30;99.90
14771;DHT22;7477;45.222;5.688;2022-12-20T09:57:28;16.40;99.90
14771;DHT22;7477;45.222;5.688;2022-12-20T10:00:49;16.00;99.90
14771;DHT22;7477;45.222;5.688;2022-12-20T10:04:29;16.90;99.90
14771;DHT22;7477;45.222;5.688;2022-12-20T10:18:55;16.80;99.90
14771;DHT22;7477;45.222;5.688;2022-12-20T10:22:24;16.70;99.90
14771;DHT22;7477;45.222;5.688;2022-12-20T10:25:46;17.00;99.90
14771;DHT22;7477;45.222;5.688;2022-12-20T10:29:05;17.00;99.90
14771;DHT22;7477;45.222;5.688;2022-12-20T10:32:26;17.10;99.90
14771;DHT22;7477;45.222;5.688;2022-12-20T10:35:46;17.10;99.90
14771;DHT22;7477;45.222;5.688;2022-12-20T10:39:07;17.00;99.90
14771;DHT22;7477;45.222;5.688;2022-12-20T10:42:38;16.70;99.90
14771;DHT22;7477;45.222;5.688;2022-12-20T10:46:05;16.20;99.90
14771;DHT22;7477;45.222;5.688;2022-12-20T10:49:29;16.70;99.90
14771;DHT22;7477;45.222;5.688;2022-12-20T10:56:29;16.60;99.90
14771;DHT22;7477;45.222;5.688;2022-12-20T10:59:52;16.30;99.90
14771;DHT22;7477;45.222;5.688;2022-12-20T11:10:03;16.80;99.90
14771;DHT22;7477;45.222;5.688;2022-12-20T11:13:35;16.10;99.90
14771;DHT22;7477;45.222;5.688;2022-12-20T11:16:55;16.80;99.90
14771;DHT22;7477;45.222;5.688;2022-12-20T11:20:37;17.00;99.90
14771;DHT22;7477;45.222;5.688;2022-12-20T11:42:27;17.10;99.90
14771;DHT22;7477;45.222;5.688;2022-12-20T11:53:09;16.20;99.90
14771;DHT22;7477;45.222;5.688;2022-12-20T11:56:33;16.60;99.90
14771;DHT22;7477;45.222;5.688;2022-12-20T11:59:59;16.60;99.90
14771;DHT22;7477;45.222;5.688;2022-12-20T12:03:32;16.40;99.90
14771;DHT22;7477;45.222;5.688;2022-12-20T12:06:58;16.00;99.90
14771;DHT22;7477;45.222;5.688;2022-12-20T12:10:33;16.50;99.90
14771;DHT22;7477;45.222;5.688;2022-12-20T12:13:54;16.60;99.90
14771;DHT22;7477;45.222;5.688;2022-12-20T12:17:56;16.80;99.90
14771;DHT22;7477;45.222;5.688;2022-12-20T12:21:39;17.00;99.90
14771;DHT22;7477;45.222;5.688;2022-12-20T12:25:10;16.70;99.90
14771;DHT22;7477;45.222;5.688;2022-12-20T12:28:32;16.80;99.90
14771;DHT22;7477;45.222;5.688;2022-12-20T12:31:53;17.00;99.90
14771;DHT22;7477;45.222;5.688;2022-12-20T12:46:54;16.80;99.90
14771;DHT22;7477;45.222;5.688;2022-12-20T12:50:27;16.90;99.90
14771;DHT22;7477;45.222;5.688;2022-12-20T12:53:51;16.80;99.90
14771;DHT22;7477;45.222;5.688;2022-12-20T12:57:13;16.60;99.90
14771;DHT22;7477;45.222;5.688;2022-12-20T13:00:48;16.50;99.90
14771;DHT22;7477;45.222;5.688;2022-12-20T13:07:43;16.60;99.90
14771;DHT22;7477;45.222;5.688;2022-12-20T13:11:02;16.50;99.90
14771;DHT22;7477;45.222;5.688;2022-12-20T13:21:29;16.70;99.90
14771;DHT22;7477;45.222;5.688;2022-12-20T13:31:42;16.50;99.90
14771;DHT22;7477;45.222;5.688;2022-12-20T13:38:49;16.60;99.90
14771;DHT22;7477;45.222;5.688;2022-12-20T13:42:32;16.80;99.90
14771;DHT22;7477;45.222;5.688;2022-12-20T13:49:25;16.80;99.90
14771;DHT22;7477;45.222;5.688;2022-12-20T13:52:45;16.60;99.90
14771;DHT22;7477;45.222;5.688;2022-12-20T13:59:48;16.60;99.90
14771;DHT22;7477;45.222;5.688;2022-12-20T14:03:39;16.50;99.90
14771;DHT22;7477;45.222;5.688;2022-12-20T14:07:00;16.50;99.90
14771;DHT22;7477;45.222;5.688;2022-12-20T14:10:25;16.60;99.90
14771;DHT22;7477;45.222;5.688;2022-12-20T14:14:00;16.60;99.90
14771;DHT22;7477;45.222;5.688;2022-12-20T14:17:26;16.40;99.90
14771;DHT22;7477;45.222;5.688;2022-12-20T14:20:49;16.40;99.90
14771;DHT22;7477;45.222;5.688;2022-12-20T14:24:17;16.50;99.90
14771;DHT22;7477;45.222;5.688;2022-12-20T14:27:37;16.40;99.90
14771;DHT22;7477;45.222;5.688;2022-12-20T14:30:58;16.40;99.90
14771;DHT22;7477;45.222;5.688;2022-12-20T14:34:28;16.80;99.90
14771;DHT22;7477;45.222;5.688;2022-12-20T14:37:53;16.40;99.90
14771;DHT22;7477;45.222;5.688;2022-12-20T14:41:45;16.50;99.90
14771;DHT22;7477;45.222;5.688;2022-12-20T14:45:26;16.20;99.90
14771;DHT22;7477;45.222;5.688;2022-12-20T14:48:46;16.50;99.90
14771;DHT22;7477;45.222;5.688;2022-12-20T14:55:35;16.40;99.90
14771;DHT22;7477;45.222;5.688;2022-12-20T14:59:26;16.20;99.90
14771;DHT22;7477;45.222;5.688;2022-12-20T15:06:42;16.20;99.90
14771;DHT22;7477;45.222;5.688;2022-12-20T15:10:02;16.50;99.90
14771;DHT22;7477;45.222;5.688;2022-12-20T15:13:37;16.50;99.90
14771;DHT22;7477;45.222;5.688;2022-12-20T15:16:56;16.40;99.90
14771;DHT22;7477;45.222;5.688;2022-12-20T15:20:16;16.40;99.90
14771;DHT22;7477;45.222;5.688;2022-12-20T15:23:44;16.60;99.90
14771;DHT22;7477;45.222;5.688;2022-12-20T15:27:05;16.60;99.90
14771;DHT22;7477;45.222;5.688;2022-12-20T15:30:28;16.70;99.90
14771;DHT22;7477;45.222;5.688;2022-12-20T15:33:47;16.60;99.90
14771;DHT22;7477;45.222;5.688;2022-12-20T15:37:10;16.40;99.90
14771;DHT22;7477;45.222;5.688;2022-12-20T15:40:33;16.50;99.90
14771;DHT22;7477;45.222;5.688;2022-12-20T15:44:02;16.60;99.90
14771;DHT22;7477;45.222;5.688;2022-12-20T15:47:23;16.90;99.90
14771;DHT22;7477;45.222;5.688;2022-12-20T15:50:47;17.00;99.90
14771;DHT22;7477;45.222;5.688;2022-12-20T15:54:18;17.00;99.90
14771;DHT22;7477;45.222;5.688;2022-12-20T15:57:39;17.10;99.90
14771;DHT22;7477;45.222;5.688;2022-12-20T16:01:00;16.90;99.90
14771;DHT22;7477;45.222;5.688;2022-12-20T16:04:21;17.10;99.90
14771;DHT22;7477;45.222;5.688;2022-12-20T16:07:42;17.00;99.90
14771;DHT22;7477;45.222;5.688;2022-12-20T16:11:01;16.90;99.90
14771;DHT22;7477;45.222;5.688;2022-12-20T16:14:20;16.70;99.90
14771;DHT22;7477;45.222;5.688;2022-12-20T16:17:40;16.90;99.90
14771;DHT22;7477;45.222;5.688;2022-12-20T16:20:59;16.80;99.90
14771;DHT22;7477;45.222;5.688;2022-12-20T16:24:19;16.60;99.90
14771;DHT22;7477;45.222;5.688;2022-12-20T16:27:38;16.50;99.90
14771;DHT22;7477;45.222;5.688;2022-12-20T16:30:57;16.70;99.90
14771;DHT22;7477;45.222;5.688;2022-12-20T16:34:17;17.00;99.90
14771;DHT22;7477;45.222;5.688;2022-12-20T16:37:37;16.90;99.90
14771;DHT22;7477;45.222;5.688;2022-12-20T16:41:10;16.90;99.90
14771;DHT22;7477;45.222;5.688;2022-12-20T16:44:29;16.80;99.90
14771;DHT22;7477;45.222;5.688;2022-12-20T16:47:48;16.90;99.90
14771;DHT22;7477;45.222;5.688;2022-12-20T16:54:51;16.70;99.90
14771;DHT22;7477;45.222;5.688;2022-12-20T16:58:10;16.80;99.90
14771;DHT22;7477;45.222;5.688;2022-12-20T17:01:33;16.80;99.90
14771;DHT22;7477;45.222;5.688;2022-12-20T17:04:53;16.60;99.90
14771;DHT22;7477;45.222;5.688;2022-12-20T17:08:13;16.70;99.90
14771;DHT22;7477;45.222;5.688;2022-12-20T17:11:32;16.80;99.90
14771;DHT22;7477;45.222;5.688;2022-12-20T17:14:51;17.00;99.90
14771;DHT22;7477;45.222;5.688;2022-12-20T17:18:11;16.80;99.90
14771;DHT22;7477;45.222;5.688;2022-12-20T17:21:36;16.50;99.90
14771;DHT22;7477;45.222;5.688;2022-12-20T17:24:56;16.60;99.90
14771;DHT22;7477;45.222;5.688;2022-12-20T17:28:16;16.90;99.90
14771;DHT22;7477;45.222;5.688;2022-12-20T17:31:37;16.70;99.90
14771;DHT22;7477;45.222;5.688;2022-12-20T17:34:57;16.90;99.90
14771;DHT22;7477;45.222;5.688;2022-12-20T17:38:16;16.90;99.90
14771;DHT22;7477;45.222;5.688;2022-12-20T17:41:36;16.90;99.90
14771;DHT22;7477;45.222;5.688;2022-12-20T17:44:55;16.50;99.90
14771;DHT22;7477;45.222;5.688;2022-12-20T17:48:14;16.70;99.90
14771;DHT22;7477;45.222;5.688;2022-12-20T17:51:33;16.40;99.90
14771;DHT22;7477;45.222;5.688;2022-12-20T17:54:52;16.70;99.90
14771;DHT22;7477;45.222;5.688;2022-12-20T17:58:11;16.60;99.90
14771;DHT22;7477;45.222;5.688;2022-12-20T18:01:33;16.40;99.90
14771;DHT22;7477;45.222;5.688;2022-12-20T18:04:52;16.00;99.90
14771;DHT22;7477;45.222;5.688;2022-12-20T18:08:12;15.90;99.90
14771;DHT22;7477;45.222;5.688;2022-12-20T18:11:31;15.80;99.90
14771;DHT22;7477;45.222;5.688;2022-12-20T18:14:51;15.70;99.90
14771;DHT22;7477;45.222;5.688;2022-12-20T18:18:10;15.50;99.90
14771;DHT22;7477;45.222;5.688;2022-12-20T18:21:29;15.50;99.90
14771;DHT22;7477;45.222;5.688;2022-12-20T18:24:48;15.70;99.90
14771;DHT22;7477;45.222;5.688;2022-12-20T18:28:08;15.80;99.90
14771;DHT22;7477;45.222;5.688;2022-12-20T18:31:32;16.50;99.90
14771;DHT22;7477;45.222;5.688;2022-12-20T18:34:51;16.40;99.90
14771;DHT22;7477;45.222;5.688;2022-12-20T18:38:10;16.40;99.90
14771;DHT22;7477;45.222;5.688;2022-12-20T18:41:34;16.40;99.90
14771;DHT22;7477;45.222;5.688;2022-12-20T18:44:55;16.20;99.90
14771;DHT22;7477;45.222;5.688;2022-12-20T18:48:15;15.70;99.20
14771;DHT22;7477;45.222;5.688;2022-12-20T18:51:35;15.50;99.90
14771;DHT22;7477;45.222;5.688;2022-12-20T18:54:55;15.30;99.90
14771;DHT22;7477;45.222;5.688;2022-12-20T18:58:14;15.50;99.60
14771;DHT22;7477;45.222;5.688;2022-12-20T19:01:34;15.70;99.90
14771;DHT22;7477;45.222;5.688;2022-12-20T19:04:53;15.60;97.50
14771;DHT22;7477;45.222;5.688;2022-12-20T19:08:13;15.20;96.40
14771;DHT22;7477;45.222;5.688;2022-12-20T19:11:32;15.20;98.50
14771;DHT22;7477;45.222;5.688;2022-12-20T19:14:51;15.20;96.70
14771;DHT22;7477;45.222;5.688;2022-12-20T19:18:12;15.70;99.60
14771;DHT22;7477;45.222;5.688;2022-12-20T19:21:33;15.50;98.90
14771;DHT22;7477;45.222;5.688;2022-12-20T19:24:53;15.20;96.30
14771;DHT22;7477;45.222;5.688;2022-12-20T19:28:13;15.10;97.20
14771;DHT22;7477;45.222;5.688;2022-12-20T19:31:34;14.90;97.20
14771;DHT22;7477;45.222;5.688;2022-12-20T19:34:55;14.80;97.30
14771;DHT22;7477;45.222;5.688;2022-12-20T19:38:14;15.00;98.60
14771;DHT22;7477;45.222;5.688;2022-12-20T19:41:33;14.70;97.90
14771;DHT22;7477;45.222;5.688;2022-12-20T19:44:53;14.60;99.00
14771;DHT22;7477;45.222;5.688;2022-12-20T19:48:12;14.70;97.60
14771;DHT22;7477;45.222;5.688;2022-12-20T19:51:32;14.60;97.60
14771;DHT22;7477;45.222;5.688;2022-12-20T19:54:52;14.60;97.70
14771;DHT22;7477;45.222;5.688;2022-12-20T19:58:11;14.20;97.70
14771;DHT22;7477;45.222;5.688;2022-12-20T20:01:30;14.50;98.00
14771;DHT22;7477;45.222;5.688;2022-12-20T20:04:50;14.40;97.90
14771;DHT22;7477;45.222;5.688;2022-12-20T20:08:09;14.40;97.90
14771;DHT22;7477;45.222;5.688;2022-12-20T20:11:29;14.40;97.50
14771;DHT22;7477;45.222;5.688;2022-12-20T20:14:48;14.40;96.80
14771;DHT22;7477;45.222;5.688;2022-12-20T20:18:07;14.40;97.20
14771;DHT22;7477;45.222;5.688;2022-12-20T20:21:27;14.40;97.50
14771;DHT22;7477;45.222;5.688;2022-12-20T20:24:46;14.40;97.70
14771;DHT22;7477;45.222;5.688;2022-12-20T20:28:05;14.40;97.50
14771;DHT22;7477;45.222;5.688;2022-12-20T20:31:25;14.50;97.90
14771;DHT22;7477;45.222;5.688;2022-12-20T20:34:45;14.50;95.50
14771;DHT22;7477;45.222;5.688;2022-12-20T20:38:04;14.60;95.60
14771;DHT22;7477;45.222;5.688;2022-12-20T20:41:23;14.70;94.80
14771;DHT22;7477;45.222;5.688;2022-12-20T20:44:43;14.90;96.20
14771;DHT22;7477;45.222;5.688;2022-12-20T20:48:04;14.80;94.90
14771;DHT22;7477;45.222;5.688;2022-12-20T20:51:24;14.80;95.50
14771;DHT22;7477;45.222;5.688;2022-12-20T20:54:43;14.80;96.30
14771;DHT22;7477;45.222;5.688;2022-12-20T20:58:02;14.60;96.40
14771;DHT22;7477;45.222;5.688;2022-12-20T21:01:22;14.50;96.80
14771;DHT22;7477;45.222;5.688;2022-12-20T21:04:42;14.40;97.00
14771;DHT22;7477;45.222;5.688;2022-12-20T21:08:01;14.30;97.10
14771;DHT22;7477;45.222;5.688;2022-12-20T21:11:20;14.30;97.30
14771;DHT22;7477;45.222;5.688;2022-12-20T21:14:40;14.30;97.40
14771;DHT22;7477;45.222;5.688;2022-12-20T21:17:59;14.30;97.50
14771;DHT22;7477;45.222;5.688;2022-12-20T21:21:19;14.30;97.50
14771;DHT22;7477;45.222;5.688;2022-12-20T21:24:38;15.80;98.20
14771;DHT22;7477;45.222;5.688;2022-12-20T21:27:58;14.30;98.00
14771;DHT22;7477;45.222;5.688;2022-12-20T21:31:18;14.20;98.00
14771;DHT22;7477;45.222;5.688;2022-12-20T21:34:38;14.20;98.40
14771;DHT22;7477;45.222;5.688;2022-12-20T21:37:57;14.10;98.60
14771;DHT22;7477;45.222;5.688;2022-12-20T21:41:18;14.00;98.70
14771;DHT22;7477;45.222;5.688;2022-12-20T21:44:38;14.00;98.80
14771;DHT22;7477;45.222;5.688;2022-12-20T21:47:57;14.00;98.60
14771;DHT22;7477;45.222;5.688;2022-12-20T21:51:19;14.00;98.60
14771;DHT22;7477;45.222;5.688;2022-12-20T21:54:38;14.00;98.50
14771;DHT22;7477;45.222;5.688;2022-12-20T21:57:58;14.00;98.10
14771;DHT22;7477;45.222;5.688;2022-12-20T22:01:20;14.10;98.30
14771;DHT22;7477;45.222;5.688;2022-12-20T22:04:40;14.00;98.30
14771;DHT22;7477;45.222;5.688;2022-12-20T22:08:00;14.00;98.40
14771;DHT22;7477;45.222;5.688;2022-12-20T22:11:19;14.00;98.70
14771;DHT22;7477;45.222;5.688;2022-12-20T22:14:39;13.80;98.30
14771;DHT22;7477;45.222;5.688;2022-12-20T22:17:59;13.80;98.30
14771;DHT22;7477;45.222;5.688;2022-12-20T22:21:20;13.70;98.00
14771;DHT22;7477;45.222;5.688;2022-12-20T22:24:40;13.70;98.00
14771;DHT22;7477;45.222;5.688;2022-12-20T22:28:00;13.70;97.90
14771;DHT22;7477;45.222;5.688;2022-12-20T22:31:19;13.70;98.00
14771;DHT22;7477;45.222;5.688;2022-12-20T22:34:39;13.80;98.30
14771;DHT22;7477;45.222;5.688;2022-12-20T22:37:59;13.70;98.20
14771;DHT22;7477;45.222;5.688;2022-12-20T22:41:26;13.50;97.90
14771;DHT22;7477;45.222;5.688;2022-12-20T22:44:46;13.40;97.70
14771;DHT22;7477;45.222;5.688;2022-12-20T22:48:06;13.40;97.70
14771;DHT22;7477;45.222;5.688;2022-12-20T22:51:26;13.40;98.00
14771;DHT22;7477;45.222;5.688;2022-12-20T22:54:48;13.20;97.80
14771;DHT22;7477;45.222;5.688;2022-12-20T22:58:07;13.10;97.60
14771;DHT22;7477;45.222;5.688;2022-12-20T23:01:26;13.10;97.50
14771;DHT22;7477;45.222;5.688;2022-12-20T23:04:46;13.20;97.60
14771;DHT22;7477;45.222;5.688;2022-12-20T23:08:05;13.20;97.90
14771;DHT22;7477;45.222;5.688;2022-12-20T23:11:26;13.10;97.70
14771;DHT22;7477;45.222;5.688;2022-12-20T23:15:05;13.00;97.80
14771;DHT22;7477;45.222;5.688;2022-12-20T23:18:45;13.00;97.70
14771;DHT22;7477;45.222;5.688;2022-12-20T23:22:04;13.10;97.90
14771;DHT22;7477;45.222;5.688;2022-12-20T23:25:42;13.10;98.10
14771;DHT22;7477;45.222;5.688;2022-12-20T23:29:03;13.00;98.10